Time;durP1;ratioP1;P1;durP2;ratioP2;P2;SDS_P1;SDS_P2;PMS_P1;PMS_P2;Temp;Humidity;BMP_temperature;BMP_pressure;BME280_temperature;BME280_humidity;BME280_pressure;Samples;Min_cycle;Max_cycle;Signal;HPM_P1;HPM_P2
2022/04/13 00:02:06;;;;;;;6.50;4.68;;;;;;;11.64;66.23;101894.88;5012302;28;20030;-82
2022/04/13 00:04:32;;;;;;;7.20;5.40;;;;;;;11.76;66.14;101917.56;4997115;28;20141;-82
2022/04/13 00:06:58;;;;;;;6.18;4.90;;;;;;;11.50;65.97;101873.03;4996092;28;20052;-82
2022/04/13 00:09:24;;;;;;;6.00;4.60;;;;;;;11.73;66.34;101909.50;5018531;28;20406;-82
2022/04/13 00:11:51;;;;;;;5.70;4.45;;;;;;;11.64;66.27;101890.59;5015512;28;20064;-82
2022/04/13 00:14:22;;;;;;;6.45;5.00;;;;;;;11.61;66.06;101888.66;5015343;28;20033;-82
2022/04/13 00:16:49;;;;;;;6.20;4.72;;;;;;;11.63;65.86;101880.00;5015752;28;20029;-83
2022/04/13 00:19:15;;;;;;;5.82;5.00;;;;;;;11.71;65.85;101894.53;5027026;28;20062;-82
2022/04/13 00:21:40;;;;;;;5.38;4.45;;;;;;;11.62;65.94;101886.97;5011439;28;20141;-83
2022/04/13 00:24:06;;;;;;;6.15;4.70;;;;;;;11.62;66.22;101886.97;5011813;28;20054;-83
2022/04/13 00:26:33;;;;;;;6.00;4.80;;;;;;;11.66;66.27;101891.56;5012908;28;20427;-82
2022/04/13 00:28:58;;;;;;;6.05;4.90;;;;;;;11.69;65.90;101897.03;4996365;28;20053;-82
2022/04/13 00:31:24;;;;;;;6.57;5.05;;;;;;;11.63;66.22;101877.41;5030032;28;20025;-83
2022/04/13 00:33:50;;;;;;;5.55;4.32;;;;;;;11.69;65.96;101885.66;5030437;28;20037;-83
2022/04/13 00:36:15;;;;;;;7.55;4.95;;;;;;;11.34;66.18;101826.63;5000227;28;20025;-83
2022/04/13 00:38:41;;;;;;;6.38;4.60;;;;;;;11.55;66.12;101867.28;5032073;28;20112;-83
2022/04/13 00:41:07;;;;;;;5.93;4.88;;;;;;;11.47;65.82;101855.44;5028851;28;20033;-83
2022/04/13 00:43:32;;;;;;;6.00;4.53;;;;;;;11.52;66.20;101864.50;5032334;28;20033;-83
2022/04/13 00:45:58;;;;;;;6.00;4.85;;;;;;;11.67;66.19;101882.94;5001264;28;20037;-82
2022/04/13 00:48:26;;;;;;;6.60;5.03;;;;;;;11.64;66.17;101884.41;5030535;28;20034;-82
2022/04/13 00:50:52;;;;;;;5.93;4.97;;;;;;;11.61;66.18;101866.81;5016959;28;20033;-83
2022/04/13 00:53:18;;;;;;;5.80;4.50;;;;;;;11.60;66.24;101867.63;5022713;28;20030;-83
2022/04/13 00:55:44;;;;;;;7.20;4.78;;;;;;;11.57;66.23;101865.69;5013672;28;20392;-84
2022/04/13 00:58:15;;;;;;;5.15;4.45;;;;;;;11.53;66.51;101858.44;5001895;28;20017;-83
2022/04/13 01:00:48;;;;;;;6.72;5.00;;;;;;;11.62;65.95;101873.88;5014551;28;20091;-83
2022/04/13 01:03:22;;;;;;;6.45;4.50;;;;;;;11.60;66.23;101872.88;5015195;28;20030;-82
2022/04/13 01:05:48;;;;;;;6.38;4.57;;;;;;;11.35;66.27;101831.06;5032015;28;20021;-81
2022/04/13 01:08:17;;;;;;;5.38;4.47;;;;;;;11.56;66.25;101874.34;5031911;28;20025;-81
2022/04/13 01:10:44;;;;;;;5.88;4.70;;;;;;;11.58;66.37;101874.47;5031884;28;20084;-83
2022/04/13 01:13:10;;;;;;;6.43;4.72;;;;;;;11.55;66.51;101876.88;5014216;28;20068;-83
2022/04/13 01:15:36;;;;;;;4.80;4.30;;;;;;;11.55;66.52;101883.00;5014159;28;20380;-82
2022/04/13 01:18:02;;;;;;;5.75;4.60;;;;;;;11.36;66.31;101852.06;5014239;28;20023;-82
2022/04/13 01:20:28;;;;;;;6.05;4.70;;;;;;;11.49;66.19;101881.69;5014054;28;20515;-83
2022/04/13 01:22:53;;;;;;;5.20;4.67;;;;;;;11.54;66.06;101903.84;5030690;28;20059;-81
2022/04/13 01:25:19;;;;;;;5.80;4.60;;;;;;;11.30;66.06;101864.75;5012945;28;20284;-82
2022/04/13 01:28:16;;;;;;;5.65;4.50;;;;;;;11.55;66.22;101897.78;4996908;28;20712;-82
2022/04/13 01:30:41;;;;;;;5.78;4.55;;;;;;;11.41;66.18;101869.00;5030460;28;20030;-83
2022/04/13 01:33:07;;;;;;;5.47;4.43;;;;;;;11.19;66.08;101826.47;5006606;28;20447;-83
2022/04/13 01:35:32;;;;;;;5.53;4.30;;;;;;;11.05;65.82;101801.09;5013889;28;20100;-81
2022/04/13 01:37:58;;;;;;;6.45;4.70;;;;;;;11.44;65.99;101870.00;5014985;28;20030;-82
2022/04/13 01:40:24;;;;;;;7.53;4.70;;;;;;;11.46;66.17;101863.16;4995255;28;20117;-82
2022/04/13 01:42:50;;;;;;;5.95;4.78;;;;;;;11.08;66.38;101807.44;5011615;28;20525;-82
2022/04/13 01:45:19;;;;;;;5.38;4.43;;;;;;;11.48;66.29;101878.16;5010031;28;20034;-82
2022/04/13 01:47:54;;;;;;;6.40;4.40;;;;;;;11.38;66.48;101845.22;5000194;28;20564;-83
2022/04/13 01:50:20;;;;;;;7.07;4.95;;;;;;;11.40;66.43;101846.25;5020451;28;20049;-83
2022/04/13 01:52:47;;;;;;;5.28;4.38;;;;;;;11.45;66.58;101872.72;5013030;28;20064;-83
2022/04/13 01:55:13;;;;;;;5.68;4.35;;;;;;;11.46;66.29;101878.88;5011483;28;20040;-83
2022/04/13 01:57:40;;;;;;;5.47;4.57;;;;;;;11.46;66.36;101874.53;5010398;28;20028;-83
2022/04/13 02:00:06;;;;;;;;;;;;;;;11.49;65.95;101873.81;5003610;28;20117;-83
2022/04/13 02:02:32;;;;;;;6.93;4.53;;;;;;;11.43;66.07;101868.19;5013107;28;19924;-83
2022/04/13 02:04:58;;;;;;;5.20;4.28;;;;;;;11.41;66.64;101870.72;5011616;28;20041;-83
2022/04/13 02:07:23;;;;;;;5.68;4.40;;;;;;;11.35;66.18;101844.13;5010379;28;20072;-83
2022/04/13 02:09:49;;;;;;;5.93;4.80;;;;;;;11.28;66.04;101842.81;5009254;28;20049;-83
2022/04/13 02:12:14;;;;;;;4.85;4.35;;;;;;;10.95;66.07;101790.03;5011360;28;20542;-83
2022/04/13 02:14:44;;;;;;;6.20;4.55;;;;;;;11.38;66.07;101875.72;5003886;28;20033;-83
2022/04/13 02:17:10;;;;;;;6.03;4.50;;;;;;;11.08;66.33;101833.59;5013464;28;20030;-83
2022/04/13 02:19:36;;;;;;;5.75;4.35;;;;;;;11.16;66.24;101840.25;5013225;28;20025;-83
2022/04/13 02:22:04;;;;;;;5.20;4.00;;;;;;;11.37;66.54;101872.19;5030281;28;20121;-84
2022/04/13 02:24:30;;;;;;;6.00;4.70;;;;;;;11.09;66.31;101819.72;5001537;28;20057;-84
2022/04/13 02:26:55;;;;;;;5.85;4.65;;;;;;;11.31;66.46;101856.09;5010047;28;20484;-84
2022/04/13 02:29:21;;;;;;;5.20;4.15;;;;;;;11.06;66.16;101813.38;5020583;28;20044;-85
2022/04/13 02:31:47;;;;;;;6.22;4.55;;;;;;;11.20;66.10;101837.06;4996381;28;20042;-85
2022/04/13 02:34:13;;;;;;;6.93;4.40;;;;;;;11.09;66.56;101827.56;5015729;28;20035;-84
2022/04/13 02:36:39;;;;;;;5.28;4.05;;;;;;;11.00;66.23;101804.28;5030645;28;20056;-84
2022/04/13 02:39:05;;;;;;;5.55;4.15;;;;;;;10.97;65.97;101798.88;5027149;28;20065;-83
2022/04/13 02:41:31;;;;;;;6.20;4.40;;;;;;;11.37;66.35;101858.22;5011001;28;20527;-83
2022/04/13 02:43:56;;;;;;;;;;;;;;;11.39;66.20;101854.00;5020564;28;20033;-83
2022/04/13 02:46:22;;;;;;;5.43;4.53;;;;;;;11.08;66.35;101817.00;5014075;28;19917;-83
2022/04/13 02:48:48;;;;;;;4.80;4.30;;;;;;;11.13;66.33;101833.91;4999259;28;20414;-83
2022/04/13 02:51:13;;;;;;;5.20;4.20;;;;;;;11.14;66.38;101839.25;5031865;28;20280;-83
2022/04/13 02:53:39;;;;;;;6.43;4.50;;;;;;;10.98;66.11;101811.16;5017817;28;20406;-83
2022/04/13 02:56:05;;;;;;;5.53;4.60;;;;;;;11.10;66.20;101842.44;5030729;28;20705;-84
2022/04/13 02:58:30;;;;;;;5.65;4.57;;;;;;;11.12;66.87;101843.47;5010331;28;20510;-84
2022/04/13 03:00:56;;;;;;;5.65;4.38;;;;;;;11.18;66.66;101848.22;5013523;28;20113;-83
2022/04/13 03:03:21;;;;;;;5.97;4.38;;;;;;;11.17;66.34;101862.97;5021439;28;20385;-83
2022/04/13 03:05:47;;;;;;;5.15;4.38;;;;;;;11.11;66.51;101848.56;5015080;28;20065;-84
2022/04/13 03:08:13;;;;;;;6.22;4.50;;;;;;;11.14;66.55;101849.69;5014394;28;20060;-83
2022/04/13 03:10:38;;;;;;;5.72;4.75;;;;;;;10.95;66.71;101816.16;5016128;28;20044;-84
2022/04/13 03:13:04;;;;;;;6.07;4.60;;;;;;;11.06;66.56;101835.19;5033127;28;20079;-84
2022/04/13 03:15:30;;;;;;;6.53;4.88;;;;;;;11.22;66.10;101858.09;5016187;28;20833;-83
2022/04/13 03:17:55;;;;;;;6.75;4.80;;;;;;;10.96;66.18;101827.50;5034048;28;20571;-82
2022/04/13 03:20:21;;;;;;;6.13;4.83;;;;;;;10.97;66.43;101838.06;5025688;28;20061;-82
2022/04/13 03:22:50;;;;;;;6.77;4.90;;;;;;;11.09;66.60;101850.16;5045699;28;20287;-81
2022/04/13 03:25:16;;;;;;;7.20;4.50;;;;;;;11.19;66.32;101876.16;5053303;28;20803;-82
2022/04/13 03:27:41;;;;;;;5.43;4.60;;;;;;;11.16;66.78;101869.00;5035023;28;20025;-82
2022/04/13 03:30:08;;;;;;;5.30;4.30;;;;;;;11.19;66.12;101865.69;5053917;28;20463;-81
2022/04/13 03:32:37;;;;;;;5.20;4.30;;;;;;;11.04;66.66;101851.56;5053191;28;20021;-81
2022/04/13 03:35:07;;;;;;;6.15;4.43;;;;;;;11.10;66.42;101873.81;5035724;28;20021;-82
2022/04/13 03:37:33;;;;;;;5.30;4.15;;;;;;;11.05;66.58;101874.28;5035651;28;20037;-83
2022/04/13 03:39:59;;;;;;;6.13;4.70;;;;;;;10.74;66.78;101822.50;5035828;28;20031;-82
2022/04/13 03:42:24;;;;;;;5.30;4.35;;;;;;;11.08;66.75;101880.63;5035432;28;20502;-82
2022/04/13 03:44:50;;;;;;;5.88;4.57;;;;;;;11.05;66.57;101872.59;5053430;28;20465;-83
2022/04/13 03:47:16;;;;;;;6.47;4.80;;;;;;;11.11;66.63;101877.31;5053239;28;20037;-83
2022/04/13 03:49:41;;;;;;;7.63;5.00;;;;;;;10.98;66.52;101867.72;5018785;28;20033;-82
2022/04/13 03:52:07;;;;;;;5.22;4.35;;;;;;;11.05;66.61;101880.44;5053317;28;20080;-82
2022/04/13 03:54:33;;;;;;;5.53;4.32;;;;;;;11.11;66.39;101887.78;5031932;28;20509;-82
2022/04/13 03:56:59;;;;;;;5.40;4.22;;;;;;;11.01;66.61;101883.63;5031567;28;20620;-82
2022/04/13 03:59:26;;;;;;;5.20;4.03;;;;;;;11.00;66.66;101885.31;5032829;28;20021;-82
2022/04/13 04:01:52;;;;;;;5.72;4.47;;;;;;;10.99;66.48;101880.00;5032576;28;20291;-82
2022/04/13 04:04:18;;;;;;;6.38;4.43;;;;;;;10.95;66.58;101878.88;5052195;28;20406;-83
2022/04/13 04:06:43;;;;;;;6.22;4.47;;;;;;;10.89;66.50;101868.00;5034502;28;20037;-82
2022/04/13 04:09:09;;;;;;;4.97;4.25;;;;;;;11.06;66.42;101895.31;5034448;28;20529;-82
2022/04/13 04:11:35;;;;;;;5.63;4.35;;;;;;;11.06;66.34;101903.16;5034687;28;20033;-81
2022/04/13 04:14:01;;;;;;;7.13;4.72;;;;;;;10.79;66.49;101860.31;5034405;28;20036;-82
2022/04/13 04:16:28;;;;;;;8.60;4.93;;;;;;;10.64;66.68;101828.78;5051667;28;20124;-82
2022/04/13 04:18:54;;;;;;;7.35;4.75;;;;;;;10.56;66.52;101824.72;5051736;28;20032;-82
2022/04/13 04:21:19;;;;;;;5.32;4.13;;;;;;;10.74;66.62;101862.59;5051649;28;20044;-81
2022/04/13 04:23:45;;;;;;;7.05;4.63;;;;;;;10.84;66.89;101891.97;5034253;28;20048;-82
2022/04/13 04:26:11;;;;;;;7.03;4.82;;;;;;;10.90;66.83;101908.09;5051954;28;20025;-82
2022/04/13 04:28:36;;;;;;;5.25;4.35;;;;;;;10.88;66.96;101918.47;5051598;28;20044;-82
2022/04/13 04:31:02;;;;;;;7.65;4.57;;;;;;;10.95;66.93;101931.16;5051824;28;20060;-83
2022/04/13 04:33:28;;;;;;;6.53;5.13;;;;;;;11.00;66.84;101944.53;5051883;28;20063;-83
2022/04/13 04:35:53;;;;;;;6.40;4.80;;;;;;;10.82;66.43;101915.41;5033931;28;20029;-82
2022/04/13 04:38:19;;;;;;;7.70;5.22;;;;;;;10.71;66.95;101898.97;5032477;28;20033;-82
2022/04/13 04:40:45;;;;;;;7.25;5.00;;;;;;;10.94;66.96;101939.81;5050099;28;20025;-83
2022/04/13 04:43:11;;;;;;;7.05;4.88;;;;;;;10.84;66.92;101919.03;5050635;28;20426;-83
2022/04/13 04:45:37;;;;;;;6.97;4.80;;;;;;;10.95;66.79;101936.38;5050656;28;20029;-82
2022/04/13 04:48:06;;;;;;;9.57;5.00;;;;;;;10.84;66.53;101921.66;5050699;28;20033;-81
2022/04/13 04:50:32;;;;;;;5.47;4.63;;;;;;;10.94;66.82;101941.50;5033242;28;20025;-82
2022/04/13 04:52:58;;;;;;;6.20;4.70;;;;;;;10.89;66.77;101951.63;5032799;28;20033;-82
2022/04/13 04:55:24;;;;;;;6.80;4.80;;;;;;;10.87;67.01;101931.41;5032661;28;20079;-82
2022/04/13 04:57:50;;;;;;;8.50;5.00;;;;;;;10.72;66.59;101921.66;5032663;28;20033;-82
2022/04/13 05:00:18;;;;;;;7.00;4.70;;;;;;;10.94;66.20;101952.88;5050473;28;20032;-81
2022/04/13 05:02:48;;;;;;;6.90;4.82;;;;;;;10.77;66.71;101942.91;5033784;28;20064;-81
2022/04/13 05:05:14;;;;;;;6.05;4.90;;;;;;;10.82;67.36;101949.38;5028361;28;20068;-81
2022/04/13 05:07:40;;;;;;;6.97;4.68;;;;;;;10.71;67.08;101932.00;5030971;28;20059;-81
2022/04/13 05:10:06;;;;;;;7.32;4.60;;;;;;;10.88;66.69;101955.03;5030088;28;20044;-81
2022/04/13 05:12:56;;;;;;;6.70;4.95;;;;;;;10.89;66.81;101953.34;5030008;28;20030;-81
2022/04/13 05:15:22;;;;;;;7.95;5.07;;;;;;;10.74;66.70;101929.63;5029860;28;20532;-81
2022/04/13 05:17:48;;;;;;;6.85;4.90;;;;;;;10.86;66.63;101948.81;5031171;28;20029;-82
2022/04/13 05:20:13;;;;;;;6.38;4.93;;;;;;;10.83;66.85;101964.25;5038049;28;20049;-83
2022/04/13 05:22:39;;;;;;;7.75;5.07;;;;;;;10.73;66.83;101946.06;5049513;28;20478;-82
2022/04/13 05:25:10;;;;;;;6.90;4.63;;;;;;;10.75;66.94;101961.09;5049811;28;20521;-83
2022/04/13 05:27:36;;;;;;;6.22;4.60;;;;;;;10.66;66.97;101933.38;5049223;28;20033;-84
2022/04/13 05:30:03;;;;;;;6.68;4.60;;;;;;;10.88;66.83;101970.72;5049621;28;20036;-84
2022/04/13 05:32:30;;;;;;;6.53;4.85;;;;;;;10.66;66.95;101949.97;5049299;28;20501;-83
2022/04/13 05:35:02;;;;;;;;;;;;;;;10.84;66.91;101973.91;5049926;28;20190;-83
2022/04/13 05:37:28;;;;;;;6.50;4.50;;;;;;;10.70;67.04;101958.94;5049346;28;19924;-83
2022/04/13 05:39:54;;;;;;;;;;;;;;;10.77;66.98;101977.78;5049829;28;20176;-83
2022/04/13 05:42:22;;;;;;;6.95;4.97;;;;;;;10.54;67.38;101942.16;5049577;28;20445;-83
2022/04/13 05:44:47;;;;;;;6.30;4.75;;;;;;;10.75;67.14;101976.78;5032808;28;20410;-83
2022/04/13 05:47:13;;;;;;;6.22;4.68;;;;;;;10.72;67.28;101975.63;5050646;28;20027;-81
2022/04/13 05:49:38;;;;;;;5.82;4.55;;;;;;;10.71;67.20;101965.97;5050333;28;20743;-83
2022/04/13 05:52:04;;;;;;;7.18;5.03;;;;;;;10.73;67.55;101978.38;5050577;28;20064;-83
2022/04/13 05:54:30;;;;;;;6.22;4.75;;;;;;;10.71;67.34;101974.72;5050491;28;20494;-84
2022/04/13 05:56:55;;;;;;;6.88;4.63;;;;;;;10.79;67.07;101990.94;5033000;28;20035;-83
2022/04/13 05:59:21;;;;;;;18.88;9.05;;;;;;;10.87;65.50;101981.97;5032503;28;20078;-84
2022/04/13 06:01:47;;;;;;;11.90;7.25;;;;;;;10.73;65.53;101949.63;5037075;28;20521;-84
2022/04/13 06:04:12;;;;;;;9.57;6.15;;;;;;;10.78;66.33;101984.81;5049370;28;20037;-83
2022/04/13 06:06:38;;;;;;;12.85;6.70;;;;;;;10.78;66.62;101983.91;5049133;28;20456;-82
2022/04/13 06:09:05;;;;;;;8.45;5.93;;;;;;;10.71;66.59;101971.19;5050411;28;20025;-84
2022/04/13 06:11:30;;;;;;;10.18;6.40;;;;;;;10.73;66.68;101972.22;5045036;28;20021;-83
2022/04/13 06:13:56;;;;;;;11.82;6.65;;;;;;;10.65;66.49;101971.66;5049439;28;20043;-85
2022/04/13 06:16:21;;;;;;;8.68;6.15;;;;;;;10.69;66.91;101986.78;5031499;28;20025;-83
2022/04/13 06:18:47;;;;;;;11.65;6.38;;;;;;;10.71;67.03;101999.94;5031760;28;20056;-84
2022/04/13 06:21:13;;;;;;;9.20;5.75;;;;;;;10.56;66.97;101968.38;5031692;28;20068;-83
2022/04/13 06:23:38;;;;;;;8.77;6.05;;;;;;;10.64;67.10;101984.59;5049840;28;20474;-83
2022/04/13 06:26:04;;;;;;;9.35;6.07;;;;;;;10.75;66.92;102009.81;5049557;28;20513;-84
2022/04/13 06:28:30;;;;;;;11.93;6.35;;;;;;;10.74;67.05;102001.06;5049518;28;20040;-83
2022/04/13 06:30:56;;;;;;;8.70;5.82;;;;;;;10.66;67.17;101994.38;5049394;28;20482;-83
2022/04/13 06:33:22;;;;;;;8.60;5.78;;;;;;;10.57;67.23;101973.72;5049550;28;20075;-83
2022/04/13 06:35:47;;;;;;;8.25;5.47;;;;;;;10.54;66.92;101977.78;5049431;28;20025;-82
2022/04/13 06:38:13;;;;;;;8.15;5.65;;;;;;;10.66;66.86;101998.69;5051132;28;20033;-83
2022/04/13 06:40:38;;;;;;;8.40;6.13;;;;;;;10.68;67.11;102002.31;5054048;28;20111;-82
2022/04/13 06:43:04;;;;;;;10.05;6.40;;;;;;;10.57;66.88;101984.16;5036206;28;20485;-83
2022/04/13 06:45:30;;;;;;;11.45;6.40;;;;;;;10.73;67.01;102019.25;5035916;28;20456;-83
2022/04/13 06:47:55;;;;;;;6.88;5.45;;;;;;;10.55;67.28;101985.75;5035962;28;20033;-87
2022/04/13 06:50:22;;;;;;;8.57;5.82;;;;;;;10.23;67.25;101944.19;5055010;28;20036;-89
2022/04/13 06:52:50;;;;;;;7.57;5.55;;;;;;;10.45;67.55;101971.91;5037165;28;20041;-89
2022/04/13 06:55:15;;;;;;;7.75;5.13;;;;;;;10.50;67.16;101970.56;5016665;28;20032;-87
2022/04/13 06:57:41;;;;;;;8.18;5.32;;;;;;;10.68;67.34;101997.09;5033280;28;20108;-89
2022/04/13 07:00:09;;;;;;;8.90;5.43;;;;;;;10.55;67.26;101971.78;5026166;28;20040;-86
2022/04/13 07:02:40;;;;;;;8.48;5.47;;;;;;;10.48;67.30;101972.16;5035031;28;20029;-91
2022/04/13 07:05:07;;;;;;;8.32;5.32;;;;;;;10.72;67.17;102002.66;5052483;28;20025;-83
2022/04/13 07:07:33;;;;;;;7.72;5.75;;;;;;;10.63;67.33;101988.03;5052331;28;20032;-85
2022/04/13 07:10:01;;;;;;;8.02;5.68;;;;;;;10.76;67.10;102016.88;5035501;28;20466;-84
2022/04/13 07:12:33;;;;;;;11.55;5.82;;;;;;;10.49;67.02;101961.78;5053360;28;20032;-85
2022/04/13 07:15:00;;;;;;;9.25;5.20;;;;;;;10.75;66.97;102013.34;5052227;28;20025;-85
2022/04/13 07:17:29;;;;;;;8.07;5.45;;;;;;;10.74;66.97;102003.69;5051853;28;20479;-84
2022/04/13 07:19:55;;;;;;;8.43;5.75;;;;;;;10.42;67.17;101972.59;5035871;28;20045;-84
2022/04/13 07:22:20;;;;;;;8.68;5.47;;;;;;;10.51;67.32;101982.81;5053070;28;20025;-83
2022/04/13 07:24:46;;;;;;;8.13;5.35;;;;;;;10.69;66.96;102012.91;5053190;28;20036;-83
2022/04/13 07:27:11;;;;;;;7.53;5.13;;;;;;;10.69;67.29;102031.19;5034673;28;20403;-83
2022/04/13 07:29:37;;;;;;;8.15;5.43;;;;;;;10.76;67.10;102019.47;5052690;28;20059;-84
2022/04/13 07:32:03;;;;;;;7.45;5.18;;;;;;;10.75;67.57;102026.41;5053108;28;20068;-86
2022/04/13 07:34:29;;;;;;;9.48;5.40;;;;;;;10.75;67.17;102023.81;5052805;28;20029;-87
2022/04/13 07:36:54;;;;;;;6.85;4.93;;;;;;;10.65;67.29;102002.13;5034453;28;20025;-84
2022/04/13 07:39:21;;;;;;;7.28;4.88;;;;;;;10.73;67.01;102021.84;5052943;28;20543;-84
2022/04/13 07:41:47;;;;;;;7.68;5.70;;;;;;;10.74;67.19;102029.81;5018280;28;20100;-84
2022/04/13 07:44:14;;;;;;;9.13;5.93;;;;;;;10.64;66.27;101995.06;5035860;28;20158;-83
2022/04/13 07:46:40;;;;;;;8.02;5.03;;;;;;;10.50;66.94;101968.84;5035601;28;20034;-84
2022/04/13 07:49:06;;;;;;;8.55;5.35;;;;;;;10.47;67.10;101976.44;5053085;28;20037;-84
2022/04/13 07:51:33;;;;;;;7.20;5.18;;;;;;;10.74;67.17;102027.19;5034887;28;20510;-84
2022/04/13 07:54:01;;;;;;;;;;;;;;;10.76;67.15;102023.00;5034147;28;20111;-85
2022/04/13 07:56:28;;;;;;;6.93;5.13;;;;;;;10.69;67.23;102009.34;5033535;28;19939;-86
2022/04/13 07:58:54;;;;;;;7.80;5.55;;;;;;;10.71;66.94;102019.16;5051468;28;20028;-85
2022/04/13 08:01:19;;;;;;;8.18;4.85;;;;;;;10.65;67.16;101996.91;5051428;28;20033;-84
2022/04/13 08:03:45;;;;;;;7.03;5.20;;;;;;;10.69;67.21;102011.97;5049931;28;20122;-85
2022/04/13 08:06:11;;;;;;;7.95;5.43;;;;;;;10.78;66.96;102023.13;5050673;28;20490;-85
2022/04/13 08:08:38;;;;;;;9.98;5.82;;;;;;;10.78;67.08;102020.50;5051975;28;20060;-85
2022/04/13 08:11:04;;;;;;;8.95;5.68;;;;;;;10.60;67.12;101988.69;5051589;28;20025;-85
2022/04/13 08:13:30;;;;;;;8.50;5.20;;;;;;;10.57;66.92;101981.53;5051728;28;20116;-85
2022/04/13 08:15:56;;;;;;;7.22;5.15;;;;;;;10.80;67.10;102034.59;5052934;28;20112;-84
2022/04/13 08:18:21;;;;;;;8.82;5.50;;;;;;;10.61;67.08;101993.13;5052865;28;20108;-85
2022/04/13 08:20:47;;;;;;;8.35;5.28;;;;;;;10.72;67.02;102015.72;5051380;28;20049;-85
2022/04/13 08:23:12;;;;;;;9.77;5.70;;;;;;;10.77;67.09;102018.66;5051613;28;20112;-84
2022/04/13 08:25:38;;;;;;;7.45;5.05;;;;;;;10.58;67.17;101990.28;5051559;28;20032;-84
2022/04/13 08:28:04;;;;;;;8.73;5.53;;;;;;;10.71;67.25;102010.38;5051370;28;20049;-84
2022/04/13 08:30:29;;;;;;;7.00;5.15;;;;;;;10.62;67.56;101994.03;5051516;28;20052;-84
2022/04/13 08:32:55;;;;;;;8.65;5.75;;;;;;;10.75;67.25;102018.56;5051565;28;20057;-84
2022/04/13 08:35:21;;;;;;;7.97;5.20;;;;;;;10.79;67.07;102012.78;5051481;28;20112;-84
2022/04/13 08:37:46;;;;;;;7.63;5.53;;;;;;;10.79;67.12;102019.69;5051359;28;20407;-84
2022/04/13 08:40:12;;;;;;;7.95;5.40;;;;;;;10.71;67.12;102000.84;5051304;28;20049;-84
2022/04/13 08:42:53;;;;;;;7.13;5.25;;;;;;;10.83;67.29;102013.88;5052358;28;20148;-83
2022/04/13 08:45:26;;;;;;;10.73;5.97;;;;;;;10.82;67.29;102016.41;5052486;28;20060;-84
2022/04/13 08:47:56;;;;;;;8.27;5.60;;;;;;;10.61;67.26;101972.25;5051234;28;20021;-84
2022/04/13 08:50:27;;;;;;;8.27;5.45;;;;;;;10.71;67.15;101986.84;5052445;28;20025;-84
2022/04/13 08:52:56;;;;;;;9.43;5.68;;;;;;;10.83;67.21;102006.06;5034110;28;20498;-83
2022/04/13 08:55:23;;;;;;;9.32;5.32;;;;;;;10.80;66.92;102011.06;5052336;28;20444;-84
2022/04/13 08:57:50;;;;;;;8.38;5.60;;;;;;;10.85;67.07;102000.94;5050969;28;20490;-83
2022/04/13 09:00:17;;;;;;;7.72;5.47;;;;;;;10.83;67.01;102006.06;5052225;28;20108;-84
2022/04/13 09:03:11;;;;;;;8.32;5.38;;;;;;;10.82;66.99;101998.13;5050970;28;20021;-83
2022/04/13 09:05:37;;;;;;;7.95;5.60;;;;;;;10.80;67.19;101993.69;5051928;28;20063;-85
2022/04/13 09:08:15;;;;;;;7.57;5.45;;;;;;;10.83;67.23;101998.22;5017711;28;20033;-86
2022/04/13 09:10:41;;;;;;;8.63;5.47;;;;;;;10.83;67.14;101992.97;5034110;28;20024;-84
2022/04/13 09:13:10;;;;;;;8.15;5.45;;;;;;;10.83;67.02;101985.16;5034304;28;20036;-84
2022/04/13 09:15:40;;;;;;;7.72;5.65;;;;;;;10.86;67.01;101984.44;5051799;28;20033;-83
2022/04/13 09:18:10;;;;;;;8.43;5.68;;;;;;;10.84;67.25;101991.28;5033626;28;20036;-84
2022/04/13 09:20:37;;;;;;;8.18;5.40;;;;;;;10.87;67.37;101983.66;5033766;28;20568;-83
2022/04/13 09:23:03;;;;;;;8.23;5.90;;;;;;;10.75;67.03;101944.50;5033773;28;20525;-83
2022/04/13 09:25:32;;;;;;;;;;;;;;;10.95;68.15;101983.41;5034301;28;20025;-84
2022/04/13 09:28:06;;;;;;;11.73;6.10;;;;;;;11.06;67.70;101972.84;5036510;28;19931;-89
2022/04/13 09:30:33;;;;;;;9.98;5.80;;;;;;;10.83;67.94;101956.41;5021310;28;20033;-85
2022/04/13 09:33:01;;;;;;;9.07;5.40;;;;;;;10.86;68.02;101958.31;5056218;28;20481;-84
2022/04/13 09:35:26;;;;;;;12.63;5.88;;;;;;;10.47;67.86;101877.19;5034467;28;20524;-84
2022/04/13 09:37:52;;;;;;;10.32;5.57;;;;;;;10.75;67.54;101920.97;5034488;28;20112;-84
2022/04/13 09:40:44;;;;;;;10.43;5.90;;;;;;;11.06;67.35;101965.00;5017581;28;20043;-84
2022/04/13 09:43:14;;;;;;;7.38;5.15;;;;;;;11.04;67.36;101974.44;5030579;28;20043;-84
2022/04/13 09:45:43;;;;;;;8.77;5.72;;;;;;;11.08;67.42;101973.84;5033483;28;20036;-84
2022/04/13 09:48:11;;;;;;;9.32;5.13;;;;;;;10.74;67.32;101925.28;5049779;28;20083;-84
2022/04/13 09:50:37;;;;;;;8.50;5.38;;;;;;;10.88;67.40;101943.66;5032165;28;20718;-84
2022/04/13 09:53:05;;;;;;;9.30;5.40;;;;;;;11.13;67.39;101980.31;5032205;28;20029;-84
2022/04/13 09:55:37;;;;;;;10.27;5.30;;;;;;;10.80;67.31;101933.56;5049834;28;20417;-84
2022/04/13 09:58:07;;;;;;;8.88;5.53;;;;;;;10.89;67.75;101951.63;5032017;28;20025;-83
2022/04/13 10:00:34;;;;;;;7.32;5.35;;;;;;;10.96;67.71;101974.81;5050237;28;20017;-85
2022/04/13 10:03:08;;;;;;;10.63;5.40;;;;;;;11.08;67.64;101972.13;5050445;28;20029;-84
2022/04/13 10:05:34;;;;;;;10.43;5.03;;;;;;;11.09;67.43;101973.97;5050307;28;20025;-83
2022/04/13 10:08:03;;;;;;;12.48;5.47;;;;;;;11.10;67.57;101977.47;5050358;28;20122;-84
2022/04/13 10:10:29;;;;;;;13.07;5.22;;;;;;;11.34;66.82;101970.44;5050283;28;20039;-84
2022/04/13 10:12:55;;;;;;;9.30;5.40;;;;;;;11.19;67.11;101972.91;5051250;28;20417;-84
2022/04/13 10:15:21;;;;;;;9.82;5.22;;;;;;;11.07;67.57;101975.56;5054282;28;20056;-84
2022/04/13 10:17:46;;;;;;;10.50;5.00;;;;;;;11.06;68.25;101972.84;5055633;28;20105;-84
2022/04/13 10:20:12;;;;;;;10.52;5.20;;;;;;;10.96;67.25;101939.88;5054127;28;20045;-84
2022/04/13 10:23:01;;;;;;;12.80;5.70;;;;;;;11.20;67.23;101964.28;5055855;28;20044;-84
2022/04/13 10:25:27;;;;;;;9.52;5.30;;;;;;;11.12;67.25;101948.03;5054262;28;20346;-84
2022/04/13 10:27:57;;;;;;;10.68;5.32;;;;;;;11.28;67.33;101975.25;5054193;28;20021;-84
2022/04/13 10:30:34;;;;;;;9.70;5.45;;;;;;;11.24;66.69;101960.13;5054072;28;20021;-84
2022/04/13 10:33:09;;;;;;;;;;;;;;;11.36;66.62;101971.47;5055459;28;20482;-84
2022/04/13 10:35:40;;;;;;;12.20;5.35;;;;;;;11.32;67.57;101975.56;5055238;28;19995;-84
2022/04/13 10:38:07;;;;;;;10.50;5.40;;;;;;;11.21;67.12;101946.06;5055133;28;20025;-84
2022/04/13 10:40:38;;;;;;;10.73;5.60;;;;;;;11.37;66.84;101966.34;5037447;28;20049;-84
2022/04/13 10:43:05;;;;;;;12.50;5.50;;;;;;;11.10;67.76;101919.97;5053788;28;20048;-84
2022/04/13 10:45:33;;;;;;;11.82;6.05;;;;;;;10.96;67.01;101905.91;5053898;28;20021;-84
2022/04/13 10:48:05;;;;;;;13.23;5.80;;;;;;;11.36;68.73;101959.28;5053658;28;20033;-84
2022/04/13 10:50:46;;;;;;;15.70;6.18;;;;;;;11.36;67.83;101963.63;5053879;28;20104;-84
2022/04/13 10:53:17;;;;;;;14.57;6.18;;;;;;;11.32;70.12;101957.25;5053717;28;20033;-84
2022/04/13 10:55:45;;;;;;;11.18;5.65;;;;;;;11.26;68.29;101933.31;5054848;28;20060;-84
2022/04/13 10:58:14;;;;;;;13.00;5.30;;;;;;;11.41;69.18;101954.41;5053712;28;20029;-83
2022/04/13 11:00:45;;;;;;;16.17;5.63;;;;;;;11.26;68.23;101916.69;5053516;28;20596;-84
2022/04/13 11:03:11;;;;;;;15.85;6.03;;;;;;;11.30;69.32;101932.75;5044957;28;20031;-84
2022/04/13 11:05:39;;;;;;;11.57;5.20;;;;;;;11.47;68.56;101956.53;5036909;28;20479;-84
2022/04/13 11:08:14;;;;;;;13.48;6.03;;;;;;;11.45;69.35;101955.50;5054628;28;20032;-84
2022/04/13 11:10:42;;;;;;;14.52;6.03;;;;;;;11.38;70.32;101935.88;5054398;28;20082;-84
2022/04/13 11:13:08;;;;;;;13.88;6.40;;;;;;;11.43;70.60;101951.88;5036684;28;20376;-84
2022/04/13 11:15:37;;;;;;;18.02;5.68;;;;;;;11.34;69.86;101932.13;5036722;28;20033;-84
2022/04/13 11:18:11;;;;;;;11.23;5.55;;;;;;;11.31;71.08;101917.94;5054448;28;20025;-83
2022/04/13 11:20:38;;;;;;;11.10;5.68;;;;;;;11.40;69.63;101926.41;5032458;28;20488;-84
2022/04/13 11:23:15;;;;;;;11.93;5.68;;;;;;;11.46;70.20;101920.72;5032939;28;20120;-84
2022/04/13 11:25:54;;;;;;;15.00;6.07;;;;;;;11.49;70.49;101913.06;5031980;28;20559;-85
2022/04/13 11:28:25;;;;;;;12.30;5.45;;;;;;;11.61;70.03;101929.59;5021496;28;20030;-85